Time;durP1;ratioP1;P1;durP2;ratioP2;P2;SDS_P1;SDS_P2;PMS_P1;PMS_P2;Temp;Humidity;BMP_temperature;BMP_pressure;BME280_temperature;BME280_humidity;BME280_pressure;Samples;Min_cycle;Max_cycle;Signal;HPM_P1;HPM_P2
2022/07/13 00:00:53;;;;;;;4.93;1.07;;;;;;;13.92;74.35;94768.59;5038883;28;20253;-55
2022/07/13 00:03:37;;;;;;;1.23;0.90;;;;;;;13.84;75.30;94762.38;5047921;28;20251;-55
2022/07/13 00:06:21;;;;;;;1.10;1.00;;;;;;;13.80;74.87;94759.25;5049736;28;20228;-55
2022/07/13 00:09:05;;;;;;;1.10;1.00;;;;;;;13.96;75.14;94756.84;5047403;28;20298;-55
2022/07/13 00:11:49;;;;;;;1.43;1.03;;;;;;;14.34;72.84;94761.69;5049235;28;20300;-55
2022/07/13 00:14:34;;;;;;;2.13;1.00;;;;;;;13.94;73.91;94760.28;5044353;28;20232;-56
2022/07/13 00:17:18;;;;;;;1.20;1.10;;;;;;;13.97;74.12;94764.72;5046815;28;20205;-55
2022/07/13 00:20:03;;;;;;;1.03;1.03;;;;;;;13.86;74.76;94759.69;5048924;28;20287;-55
2022/07/13 00:22:46;;;;;;;2.80;1.20;;;;;;;13.85;74.96;94758.22;5046359;28;20201;-55
2022/07/13 00:25:30;;;;;;;2.67;1.00;;;;;;;13.73;75.67;94746.81;5042733;28;20221;-55
2022/07/13 00:28:14;;;;;;;1.07;1.07;;;;;;;13.73;75.51;94743.25;5049315;28;20201;-55
2022/07/13 00:30:59;;;;;;;2.67;1.10;;;;;;;13.70;75.38;94739.53;5048565;28;20232;-55
2022/07/13 00:33:44;;;;;;;3.53;0.80;;;;;;;13.73;75.61;94744.00;5050187;28;20233;-55
2022/07/13 00:36:29;;;;;;;2.60;1.03;;;;;;;13.54;75.86;94732.72;5042777;28;20243;-55
2022/07/13 00:39:13;;;;;;;1.33;1.10;;;;;;;13.50;76.77;94740.16;5034028;28;20217;-55
2022/07/13 00:41:57;;;;;;;2.37;1.17;;;;;;;13.48;77.52;94737.91;5043011;28;20225;-56
2022/07/13 00:44:41;;;;;;;2.27;1.10;;;;;;;13.61;76.76;94733.91;5044618;28;20201;-55
2022/07/13 00:47:32;;;;;;;1.43;0.97;;;;;;;13.59;76.50;94742.22;5049914;28;20217;-55
2022/07/13 00:50:16;;;;;;;0.87;0.83;;;;;;;13.45;76.97;94738.38;5047968;28;20205;-55
2022/07/13 00:53:00;;;;;;;3.50;1.10;;;;;;;13.42;77.35;94733.91;5046527;28;20260;-55
2022/07/13 00:55:46;;;;;;;5.67;1.23;;;;;;;13.55;76.84;94736.28;5049235;28;20260;-55
2022/07/13 00:58:31;;;;;;;1.27;1.17;;;;;;;13.51;76.95;94730.38;5041766;28;20202;-55
2022/07/13 01:01:16;;;;;;;3.30;1.17;;;;;;;13.54;76.81;94729.16;5042248;28;20213;-55
2022/07/13 01:04:00;;;;;;;1.20;0.90;;;;;;;13.58;76.52;94729.47;5048938;28;20225;-55
2022/07/13 01:06:44;;;;;;;1.10;1.00;;;;;;;13.43;76.78;94730.50;5052862;28;20284;-55
2022/07/13 01:09:30;;;;;;;3.90;1.47;;;;;;;13.45;77.43;94735.56;5043096;28;20202;-55
2022/07/13 01:12:14;;;;;;;2.73;1.10;;;;;;;13.42;77.24;94733.91;5045890;28;20222;-55
2022/07/13 01:15:00;;;;;;;1.07;0.90;;;;;;;13.27;77.76;94732.84;5049428;28;20204;-55
2022/07/13 01:17:44;;;;;;;0.83;0.83;;;;;;;13.17;77.87;94729.28;5048677;28;20236;-55
2022/07/13 01:20:28;;;;;;;1.00;1.00;;;;;;;13.07;78.74;94728.53;5040301;28;20205;-55
2022/07/13 01:23:17;;;;;;;0.90;0.90;;;;;;;12.85;80.36;94724.00;5044564;28;20209;-55
2022/07/13 02:45:17;;;;;;;1.43;1.33;;;;;;;12.83;80.57;94733.06;5040238;28;20275;-55
2022/07/13 02:48:01;;;;;;;1.23;0.80;;;;;;;12.64;80.44;94726.63;5052362;28;20287;-55
2022/07/13 02:50:46;;;;;;;1.23;1.13;;;;;;;12.83;79.34;94723.88;5050834;28;20226;-55
2022/07/13 02:53:30;;;;;;;1.60;1.03;;;;;;;12.63;80.42;94714.66;5045061;28;20200;-55
2022/07/13 02:56:16;;;;;;;1.23;1.13;;;;;;;12.49;80.96;94721.97;5051037;28;20190;-55
2022/07/13 02:59:01;;;;;;;1.20;1.10;;;;;;;12.51;81.32;94719.34;5051174;28;20237;-55
2022/07/13 03:01:45;;;;;;;2.13;1.40;;;;;;;12.44;81.72;94720.19;5051751;28;20284;-55
2022/07/13 03:04:30;;;;;;;1.30;1.20;;;;;;;12.76;80.52;94716.31;5048649;28;20272;-55
2022/07/13 03:07:15;;;;;;;1.80;1.30;;;;;;;12.87;79.39;94718.56;5053909;28;20283;-55
2022/07/13 03:09:59;;;;;;;2.73;1.40;;;;;;;12.77;79.90;94712.19;5052986;28;20635;-55
2022/07/13 03:12:44;;;;;;;1.37;1.27;;;;;;;12.72;79.70;94710.34;5047808;28;20356;-55
2022/07/13 03:15:29;;;;;;;1.80;1.10;;;;;;;12.68;80.45;94716.44;5044129;28;20739;-55
2022/07/13 03:18:14;;;;;;;2.07;1.30;;;;;;;12.98;79.55;94710.28;5050938;28;20257;-55
2022/07/13 03:20:58;;;;;;;1.43;1.30;;;;;;;12.74;79.81;94713.34;5049902;28;20205;-55
2022/07/13 03:23:43;;;;;;;2.53;1.30;;;;;;;12.53;81.01;94711.78;5049235;28;20206;-55
2022/07/13 03:26:27;;;;;;;1.87;1.17;;;;;;;12.30;82.06;94705.78;5048538;28;20273;-55
2022/07/13 03:29:12;;;;;;;5.33;1.20;;;;;;;12.37;82.48;94709.81;5050165;28;20209;-55
2022/07/13 03:31:56;;;;;;;2.37;1.03;;;;;;;12.61;81.98;94710.94;5046870;28;20272;-55
2022/07/13 03:34:40;;;;;;;3.90;1.30;;;;;;;12.78;80.61;94719.25;5050497;28;20267;-55
2022/07/13 03:37:25;;;;;;;1.67;1.10;;;;;;;12.95;79.43;94713.53;5049626;28;20205;-55
2022/07/13 03:40:13;;;;;;;1.90;1.20;;;;;;;13.01;78.22;94716.81;5050227;28;20408;-55
2022/07/13 03:42:58;;;;;;;2.07;1.23;;;;;;;12.87;80.00;94718.56;5047196;28;20962;-55
2022/07/13 03:45:43;;;;;;;11.03;1.30;;;;;;;12.96;79.57;94723.47;5047824;28;20240;-55
2022/07/13 03:48:27;;;;;;;1.30;1.20;;;;;;;13.32;78.14;94726.22;5042265;28;20221;-55
2022/07/13 03:51:11;;;;;;;1.30;1.20;;;;;;;13.31;77.64;94724.72;5047922;28;20738;-55
2022/07/13 03:53:55;;;;;;;1.53;1.10;;;;;;;13.52;78.09;94720.56;5047615;28;20734;-55
2022/07/13 03:56:39;;;;;;;1.67;1.47;;;;;;;13.70;77.73;94713.47;5049928;28;20209;-55
2022/07/13 03:59:24;;;;;;;3.57;1.27;;;;;;;14.83;73.52;94721.44;5050060;28;20209;-55
2022/07/13 04:02:09;;;;;;;1.40;1.30;;;;;;;15.20;71.53;94712.59;5048882;28;20220;-55
2022/07/13 04:04:53;;;;;;;2.43;1.40;;;;;;;16.04;69.30;94711.06;5047802;28;20241;-55
2022/07/13 04:07:40;;;;;;;1.33;1.00;;;;;;;18.00;63.22;94725.00;5045998;28;20489;-55
2022/07/13 04:10:25;;;;;;;1.93;1.10;;;;;;;19.66;57.42;94717.59;5049121;28;20244;-55
2022/07/13 04:13:10;;;;;;;2.70;0.93;;;;;;;20.38;54.24;94718.94;5045559;28;20205;-55
2022/07/13 04:15:54;;;;;;;4.10;1.07;;;;;;;20.72;52.97;94714.16;5047814;28;20690;-55
2022/07/13 04:18:38;;;;;;;0.83;0.77;;;;;;;21.62;51.19;94725.28;5050034;28;20259;-55
2022/07/13 04:21:22;;;;;;;1.03;0.80;;;;;;;22.49;48.99;94718.22;5044295;28;20204;-55
2022/07/13 04:24:07;;;;;;;6.53;1.23;;;;;;;23.54;46.15;94709.28;5049415;28;20228;-55
2022/07/13 04:26:51;;;;;;;4.10;0.95;;;;;;;23.36;45.63;94717.94;5047037;28;20751;-55
2022/07/13 04:29:35;;;;;;;4.40;1.00;;;;;;;24.15;44.61;94717.81;5046966;28;20209;-55
2022/07/13 04:32:19;;;;;;;0.70;0.70;;;;;;;24.32;43.79;94714.09;5044547;28;20297;-55
2022/07/13 04:35:04;;;;;;;1.73;0.80;;;;;;;23.43;45.48;94704.59;5049454;28;20208;-55
2022/07/13 04:37:52;;;;;;;5.40;1.30;;;;;;;22.17;48.55;94700.53;5047489;28;20351;-55
2022/07/13 04:40:36;;;;;;;2.22;0.80;;;;;;;21.72;49.70;94694.34;5042793;28;20197;-55
2022/07/13 04:43:20;;;;;;;3.50;1.00;;;;;;;21.16;51.61;94690.53;5040380;28;20666;-55
2022/07/13 04:46:05;;;;;;;1.70;0.80;;;;;;;20.66;53.26;94680.44;5049208;28;20205;-55
2022/07/13 04:48:50;;;;;;;3.40;1.07;;;;;;;20.37;54.24;94678.38;5049621;28;20678;-55
2022/07/13 04:51:35;;;;;;;1.77;1.10;;;;;;;20.23;54.92;94680.53;5024400;28;20287;-55
2022/07/13 04:54:22;;;;;;;6.57;0.97;;;;;;;20.36;54.61;94682.59;5041047;28;20201;-55
2022/07/13 04:57:06;;;;;;;4.93;0.90;;;;;;;20.64;54.30;94676.75;5042874;28;20259;-55
2022/07/13 04:59:49;;;;;;;1.27;0.83;;;;;;;20.47;54.86;94678.84;5050362;28;20201;-55
2022/07/13 05:02:35;;;;;;;4.07;1.00;;;;;;;20.52;54.11;94666.25;5053003;28;20197;-55
2022/07/13 05:05:19;;;;;;;1.10;1.00;;;;;;;20.65;54.47;94678.22;5054066;28;20197;-55
2022/07/13 05:08:04;;;;;;;1.93;0.93;;;;;;;20.54;55.07;94674.19;5054449;28;20217;-55
2022/07/13 05:10:48;;;;;;;0.95;0.85;;;;;;;20.54;54.97;94674.91;5047132;28;20264;-55
2022/07/13 05:13:32;;;;;;;3.10;1.30;;;;;;;20.79;54.01;94667.47;5046568;28;20285;-55
2022/07/13 05:16:18;;;;;;;2.40;1.10;;;;;;;20.83;53.74;94670.50;5053780;28;20272;-55
2022/07/13 05:19:03;;;;;;;1.63;0.80;;;;;;;20.86;54.39;94674.91;5053020;28;20209;-54
2022/07/13 05:21:53;;;;;;;1.43;1.07;;;;;;;21.23;53.36;94683.69;5047465;28;20712;-55
2022/07/13 05:24:37;;;;;;;2.00;0.87;;;;;;;20.94;53.92;94675.25;5049108;28;20252;-55
2022/07/13 05:27:22;;;;;;;1.10;0.90;;;;;;;21.13;54.30;94673.94;5053317;28;20233;-55
2022/07/13 05:30:07;;;;;;;2.30;0.90;;;;;;;21.29;53.61;94664.00;5050783;28;20202;-55
2022/07/13 05:32:51;;;;;;;0.87;0.87;;;;;;;21.51;53.02;94666.34;5049951;28;20197;-55
2022/07/13 05:35:36;;;;;;;1.20;1.10;;;;;;;21.45;53.45;94674.66;5046527;28;20233;-55
2022/07/13 05:38:20;;;;;;;1.37;1.03;;;;;;;21.42;53.52;94670.25;5057818;28;20724;-55
2022/07/13 05:41:05;;;;;;;1.93;1.00;;;;;;;21.51;52.91;94674.91;5048077;28;20275;-54
2022/07/13 05:43:49;;;;;;;1.97;0.83;;;;;;;21.55;53.08;94678.66;5045309;28;20691;-55
2022/07/13 05:46:34;;;;;;;1.20;0.98;;;;;;;21.48;53.54;94676.94;5051390;28;20697;-55
2022/07/13 05:49:18;;;;;;;2.58;1.00;;;;;;;21.67;52.46;94670.63;5053774;28;20213;-54
2022/07/13 05:52:03;;;;;;;1.58;0.98;;;;;;;21.72;51.66;94668.69;5047910;28;20222;-55
2022/07/13 05:54:50;;;;;;;1.05;0.80;;;;;;;21.83;51.84;94667.72;5050550;28;20201;-55
2022/07/13 05:57:34;;;;;;;0.95;0.95;;;;;;;21.87;52.08;94662.16;5053068;28;20352;-55
2022/07/13 06:00:18;;;;;;;0.95;0.60;;;;;;;21.97;51.24;94665.44;5049435;28;20592;-55
2022/07/13 06:03:02;;;;;;;0.70;0.70;;;;;;;22.12;51.77;94664.63;5050317;28;20789;-55
2022/07/13 06:05:46;;;;;;;0.95;0.80;;;;;;;22.11;51.96;94654.59;5048651;28;20252;-55
2022/07/13 06:08:30;;;;;;;2.53;0.57;;;;;;;22.58;50.02;94657.16;5050544;28;20694;-55
2022/07/13 06:11:14;;;;;;;2.50;1.00;;;;;;;22.86;49.04;94660.38;5050862;28;20237;-55
2022/07/13 06:13:58;;;;;;;0.80;0.70;;;;;;;22.95;49.36;94645.00;5049010;28;20209;-54
2022/07/13 06:16:42;;;;;;;1.38;1.00;;;;;;;22.93;50.76;94664.91;5053165;28;20206;-54
2022/07/13 06:19:26;;;;;;;0.90;0.90;;;;;;;22.88;51.09;94659.72;5055146;28;20209;-55
2022/07/13 06:22:10;;;;;;;1.35;0.80;;;;;;;22.99;51.53;94653.72;5049732;28;20953;-54
2022/07/13 06:24:54;;;;;;;0.70;0.60;;;;;;;23.20;50.88;94654.44;5052089;28;20722;-55
2022/07/13 06:27:38;;;;;;;0.80;0.80;;;;;;;23.42;49.99;94663.81;5052920;28;20320;-54
2022/07/13 06:30:22;;;;;;;1.60;0.98;;;;;;;23.39;51.29;94660.13;5041693;28;20202;-54
2022/07/13 06:33:06;;;;;;;1.17;0.90;;;;;;;23.65;50.76;94651.75;5050459;28;20217;-55
2022/07/13 06:35:50;;;;;;;1.35;0.77;;;;;;;23.76;50.80;94656.41;5052473;28;20281;-54
2022/07/13 06:38:34;;;;;;;3.95;0.80;;;;;;;23.75;49.97;94660.69;5045295;28;20698;-54
2022/07/13 06:41:19;;;;;;;1.25;0.90;;;;;;;23.93;50.06;94659.84;5049541;28;20189;-55
2022/07/13 06:44:03;;;;;;;1.42;0.80;;;;;;;24.08;48.94;94662.47;5046990;28;20243;-54
2022/07/13 06:46:47;;;;;;;4.00;0.80;;;;;;;24.17;48.22;94666.34;5052619;28;20248;-55
2022/07/13 06:49:31;;;;;;;4.32;0.70;;;;;;;24.23;48.46;94660.84;5049609;28;20737;-54
2022/07/13 06:52:15;;;;;;;1.13;0.80;;;;;;;24.38;46.57;94659.88;5049860;28;20714;-54
2022/07/13 06:54:59;;;;;;;0.80;0.80;;;;;;;24.55;45.20;94661.84;5051513;28;20201;-54
2022/07/13 06:57:43;;;;;;;0.52;0.52;;;;;;;24.56;44.33;94656.84;5047315;28;20205;-54
2022/07/13 07:00:28;;;;;;;0.82;0.80;;;;;;;24.75;44.29;94655.97;5046926;28;20229;-54
2022/07/13 07:03:12;;;;;;;0.68;0.68;;;;;;;24.93;43.27;94650.09;5048440;28;20228;-54
2022/07/13 07:05:56;;;;;;;0.55;0.55;;;;;;;25.05;43.61;94644.72;5051846;28;20205;-54
2022/07/13 07:08:40;;;;;;;1.08;0.80;;;;;;;25.06;42.54;94637.56;5053138;28;20305;-54
2022/07/13 07:11:24;;;;;;;0.77;0.68;;;;;;;25.23;42.54;94633.75;5043881;28;20222;-54
2022/07/13 07:14:09;;;;;;;1.05;0.75;;;;;;;25.48;42.39;94628.66;5049498;28;20197;-54
2022/07/13 07:16:52;;;;;;;1.13;0.50;;;;;;;25.54;41.29;94620.22;5051805;28;20601;-54
2022/07/13 07:19:37;;;;;;;1.70;0.68;;;;;;;25.68;41.82;94629.19;5047416;28;20225;-54
2022/07/13 07:22:21;;;;;;;0.77;0.70;;;;;;;25.74;42.02;94626.50;5042303;28;20673;-54
2022/07/13 07:25:07;;;;;;;1.30;0.60;;;;;;;25.72;42.56;94626.47;5048825;28;20201;-54
2022/07/13 07:27:51;;;;;;;1.73;0.70;;;;;;;26.02;42.61;94624.34;5051714;28;20677;-54
2022/07/13 07:30:36;;;;;;;0.73;0.65;;;;;;;26.21;41.07;94627.66;5044942;28;20257;-54
2022/07/13 07:33:20;;;;;;;0.50;0.43;;;;;;;26.31;40.09;94633.66;5049331;28;20303;-54
2022/07/13 07:36:05;;;;;;;1.38;0.65;;;;;;;26.30;41.69;94637.94;5051100;28;20209;-54
2022/07/13 07:38:49;;;;;;;0.57;0.50;;;;;;;26.22;40.59;94640.59;5050636;28;20256;-54
2022/07/13 07:41:33;;;;;;;2.13;0.55;;;;;;;26.45;40.83;94636.88;5044471;28;20691;-54
2022/07/13 07:44:18;;;;;;;2.42;0.60;;;;;;;26.47;39.14;94639.78;5045614;28;20225;-55
2022/07/13 07:47:02;;;;;;;1.48;0.70;;;;;;;26.22;38.65;94635.59;5050431;28;20213;-54
2022/07/13 07:49:46;;;;;;;0.60;0.60;;;;;;;26.49;37.76;94648.44;5050863;28;20200;-55
2022/07/13 07:52:30;;;;;;;1.25;0.50;;;;;;;26.60;38.07;94644.41;5047223;28;20257;-54
2022/07/13 07:55:15;;;;;;;0.95;0.50;;;;;;;26.68;36.26;94653.19;5049775;28;20295;-55
2022/07/13 07:58:00;;;;;;;0.68;0.50;;;;;;;26.85;37.76;94652.13;5051169;28;20348;-55
2022/07/13 08:00:44;;;;;;;0.75;0.70;;;;;;;26.90;37.11;94650.84;5049399;28;20201;-55
2022/07/13 08:03:28;;;;;;;0.50;0.50;;;;;;;27.02;37.85;94650.38;5046735;28;21089;-54
2022/07/13 08:06:13;;;;;;;2.70;0.60;;;;;;;26.97;36.71;94652.41;5050760;28;20205;-54
2022/07/13 08:08:56;;;;;;;0.75;0.63;;;;;;;27.08;37.81;94653.38;5051020;28;20205;-54
2022/07/13 08:11:40;;;;;;;0.70;0.70;;;;;;;27.35;37.02;94646.72;5042434;28;20225;-55
2022/07/13 08:14:24;;;;;;;0.65;0.55;;;;;;;27.48;36.26;94653.44;5035169;28;20200;-54
2022/07/13 08:17:08;;;;;;;5.10;0.88;;;;;;;27.55;37.39;94649.28;5049175;28;20690;-54
2022/07/13 08:19:52;;;;;;;0.75;0.73;;;;;;;27.37;35.62;94649.66;5051133;28;20224;-54
2022/07/13 08:22:38;;;;;;;2.53;0.73;;;;;;;27.07;37.03;94651.91;5046881;28;20204;-54
2022/07/13 08:25:23;;;;;;;1.63;0.77;;;;;;;27.19;35.39;94645.66;5045177;28;20197;-54
2022/07/13 08:28:07;;;;;;;0.70;0.60;;;;;;;27.00;34.91;94646.72;5050902;28;20623;-54
2022/07/13 08:30:51;;;;;;;2.70;0.80;;;;;;;27.38;34.21;94656.13;5047964;28;20307;-54
2022/07/13 08:39:42;;;;;;;0.60;0.60;;;;;;;28.12;34.77;94644.53;5045701;28;20255;-54
2022/07/13 08:42:26;;;;;;;1.02;0.47;;;;;;;28.00;32.82;94639.31;5048097;28;20208;-54
2022/07/13 08:45:10;;;;;;;0.82;0.80;;;;;;;28.25;29.67;94637.56;5047561;28;20682;-54
2022/07/13 08:47:57;;;;;;;0.70;0.50;;;;;;;29.15;29.81;94640.31;5051294;28;20259;-54
2022/07/13 08:50:42;;;;;;;1.42;0.50;;;;;;;29.58;29.10;94637.94;5051995;28;20740;-54
2022/07/13 08:53:27;;;;;;;1.25;0.50;;;;;;;28.68;29.55;94636.06;5041729;28;20237;-54
2022/07/13 08:56:12;;;;;;;0.85;0.70;;;;;;;28.73;29.72;94637.56;5052525;28;20213;-54
2022/07/13 08:58:56;;;;;;;1.13;0.70;;;;;;;29.02;29.04;94644.47;5049797;28;20734;-54
2022/07/13 09:01:41;;;;;;;0.90;0.50;;;;;;;29.33;30.27;94631.91;5046162;28;20209;-54
2022/07/13 09:04:26;;;;;;;0.60;0.60;;;;;;;30.03;29.35;94639.88;5046363;28;20221;-54
2022/07/13 09:07:11;;;;;;;0.50;0.38;;;;;;;29.63;26.68;94637.28;5056408;28;20251;-54
2022/07/13 09:09:56;;;;;;;0.88;0.57;;;;;;;29.64;27.21;94629.34;5048422;28;20198;-54
2022/07/13 09:12:40;;;;;;;5.30;0.60;;;;;;;29.52;25.71;94632.09;5053505;28;20217;-54
2022/07/13 09:15:24;;;;;;;4.65;0.40;;;;;;;29.37;27.32;94624.72;5046685;28;20201;-54
2022/07/13 09:18:17;;;;;;;0.40;0.40;;;;;;;29.81;26.68;94631.00;5052917;28;20239;-54
2022/07/13 09:21:01;;;;;;;1.08;0.40;;;;;;;29.61;25.32;94630.78;5050337;28;20233;-54
2022/07/13 09:24:06;;;;;;;3.42;0.40;;;;;;;29.51;25.37;94630.66;5048482;28;20289;-54
2022/07/13 09:26:52;;;;;;;2.65;0.52;;;;;;;29.23;24.97;94633.91;5049831;28;20566;-54
2022/07/13 09:29:36;;;;;;;1.50;0.40;;;;;;;29.50;27.64;94626.31;5051640;28;20256;-54
2022/07/13 09:32:21;;;;;;;0.50;0.40;;;;;;;29.86;26.56;94644.03;5046981;28;20299;-54
2022/07/13 09:35:06;;;;;;;0.45;0.40;;;;;;;29.02;25.07;94647.34;5053612;28;20213;-54
2022/07/13 09:37:50;;;;;;;0.75;0.35;;;;;;;29.61;26.00;94643.06;5052601;28;20624;-54
2022/07/13 09:40:34;;;;;;;1.63;0.40;;;;;;;30.21;24.60;94644.38;5051484;28;20229;-54
2022/07/13 09:46:20;;;;;;;2.75;0.45;;;;;;;30.26;26.68;94637.19;5052384;28;20222;-54
2022/07/13 09:49:04;;;;;;;0.50;0.30;;;;;;;30.42;23.93;94628.66;5053060;28;20216;-54
2022/07/13 09:51:56;;;;;;;0.43;0.43;;;;;;;31.09;24.78;94640.69;5051445;28;20352;-54
2022/07/13 09:54:42;;;;;;;3.08;0.40;;;;;;;31.62;22.01;94636.56;5045847;28;20206;-54
2022/07/13 09:57:28;;;;;;;0.80;0.40;;;;;;;32.34;22.36;94634.53;5053440;28;20247;-55
2022/07/13 10:00:14;;;;;;;1.27;0.30;;;;;;;32.54;21.35;94641.03;5053273;28;20300;-54
2022/07/13 10:02:59;;;;;;;1.70;0.47;;;;;;;32.85;21.21;94633.03;5054664;28;20276;-55
2022/07/13 10:05:44;;;;;;;2.28;0.63;;;;;;;32.81;21.29;94641.75;5048245;28;20281;-55
2022/07/13 10:08:30;;;;;;;0.40;0.40;;;;;;;33.40;21.30;94637.97;5052327;28;20677;-55
2022/07/13 10:11:14;;;;;;;2.80;0.50;;;;;;;32.91;21.80;94649.72;5050099;28;20251;-54
2022/07/13 10:13:59;;;;;;;1.52;0.40;;;;;;;32.73;21.16;94644.66;5042362;28;20350;-55
2022/07/13 10:16:44;;;;;;;0.30;0.30;;;;;;;33.76;20.78;94652.38;5053412;28;20705;-54
2022/07/13 10:19:30;;;;;;;1.25;0.50;;;;;;;33.53;19.50;94653.91;5047364;28;20269;-55
2022/07/13 10:22:30;;;;;;;2.65;0.47;;;;;;;33.22;19.08;94651.13;5049362;28;20197;-54
2022/07/13 10:25:17;;;;;;;0.57;0.50;;;;;;;33.33;20.36;94648.19;5051030;28;20284;-54
2022/07/13 10:28:04;;;;;;;1.05;0.40;;;;;;;33.50;20.41;94637.94;5052747;28;20268;-54
2022/07/13 10:30:49;;;;;;;1.00;0.40;;;;;;;32.92;20.23;94648.25;5047459;28;20275;-55
2022/07/13 10:33:33;;;;;;;0.98;0.30;;;;;;;33.82;19.37;94642.91;5043493;28;20200;-55
2022/07/13 10:36:52;;;;;;;0.80;0.32;;;;;;;34.50;19.05;94641.72;5051787;28;20299;-55
2022/07/13 10:39:36;;;;;;;0.57;0.57;;;;;;;34.80;19.93;94644.38;5045484;28;20201;-55
2022/07/13 10:42:20;;;;;;;0.40;0.40;;;;;;;35.11;18.37;94646.97;5050070;28;20286;-54
2022/07/13 10:45:40;;;;;;;0.75;0.35;;;;;;;34.98;19.95;94645.66;5046204;28;20278;-54
2022/07/13 10:48:24;;;;;;;2.13;0.45;;;;;;;35.16;18.13;94651.28;5044828;28;20698;-55
2022/07/13 10:51:16;;;;;;;0.47;0.43;;;;;;;35.32;18.31;94654.03;5050598;28;20292;-55
2022/07/13 10:54:00;;;;;;;0.93;0.47;;;;;;;35.07;19.38;94647.00;5046718;28;20213;-55
2022/07/13 10:57:16;;;;;;;1.60;0.40;;;;;;;34.54;19.36;94647.50;5045324;28;20302;-55
2022/07/13 11:00:03;;;;;;;0.52;0.40;;;;;;;33.24;21.25;94632.97;5044789;28;20206;-54
2022/07/13 11:02:48;;;;;;;2.17;0.52;;;;;;;33.00;22.13;94636.63;5047504;28;20217;-55
2022/07/13 11:05:36;;;;;;;1.20;0.57;;;;;;;33.84;23.39;94634.88;5052405;28;20267;-55
2022/07/13 11:08:28;;;;;;;0.52;0.30;;;;;;;34.32;22.01;94628.00;5054151;28;20338;-55
2022/07/13 11:11:14;;;;;;;0.47;0.40;;;;;;;34.49;22.02;94626.44;5048066;28;20607;-55
2022/07/13 11:13:58;;;;;;;0.90;0.68;;;;;;;34.34;21.87;94627.28;5040901;28;20217;-55
2022/07/13 11:16:49;;;;;;;0.90;0.40;;;;;;;34.58;21.96;94629.97;5052022;28;20324;-55
2022/07/13 11:19:52;;;;;;;2.35;0.50;;;;;;;34.27;20.40;94634.59;5045880;28;20198;-55
2022/07/13 11:26:09;;;;;;;0.32;0.30;;;;;;;33.46;20.59;94620.50;5050073;28;20205;-55
2022/07/13 11:29:07;;;;;;;0.32;0.32;;;;;;;32.99;21.65;94614.84;5051821;28;20243;-54
2022/07/13 11:31:56;;;;;;;0.30;0.30;;;;;;;32.50;22.61;94617.09;5041474;28;20222;-55
2022/07/13 11:34:41;;;;;;;0.40;0.40;;;;;;;30.93;23.21;94618.84;5052046;28;20313;-55
2022/07/13 11:37:25;;;;;;;0.40;0.30;;;;;;;31.74;22.99;94613.41;5051853;28;20205;-55
2022/07/13 11:40:10;;;;;;;0.55;0.40;;;;;;;32.33;22.22;94610.59;5047161;28;20193;-55
2022/07/13 11:42:54;;;;;;;0.38;0.38;;;;;;;32.14;21.00;94612.03;5040349;28;20209;-55
2022/07/13 11:45:40;;;;;;;1.00;0.60;;;;;;;31.24;23.14;94607.44;5047284;28;20252;-54
2022/07/13 11:48:31;;;;;;;0.63;0.30;;;;;;;32.23;22.45;94601.88;5043710;28;20634;-55
2022/07/13 11:51:15;;;;;;;3.03;0.40;;;;;;;32.33;21.79;94604.78;5047242;28;20725;-55
2022/07/13 11:54:10;;;;;;;0.38;0.38;;;;;;;32.54;21.35;94612.00;5047171;28;20520;-54
2022/07/13 11:56:56;;;;;;;0.40;0.40;;;;;;;33.64;19.75;94597.16;5054854;28;20336;-55
2022/07/13 11:59:44;;;;;;;0.50;0.40;;;;;;;33.51;19.03;94599.44;5045362;28;20201;-55
2022/07/13 12:02:29;;;;;;;0.65;0.40;;;;;;;33.12;19.65;94595.94;5047728;28;20205;-54
2022/07/13 12:05:21;;;;;;;0.52;0.40;;;;;;;33.20;20.07;94598.13;5050927;28;20200;-54
2022/07/13 12:08:06;;;;;;;0.55;0.40;;;;;;;32.95;21.39;94588.00;5053168;28;20214;-54
2022/07/13 12:10:50;;;;;;;0.85;0.40;;;;;;;33.12;19.61;94589.41;5046522;28;20225;-55
2022/07/13 12:13:38;;;;;;;0.93;0.40;;;;;;;32.59;19.19;94600.41;5045779;28;20284;-54
2022/07/13 12:16:22;;;;;;;4.05;0.40;;;;;;;32.71;21.48;94583.00;5048237;28;20249;-55
2022/07/13 12:19:09;;;;;;;0.35;0.20;;;;;;;32.75;20.72;94582.97;5050795;28;20209;-54
2022/07/13 12:21:57;;;;;;;2.88;0.38;;;;;;;33.06;20.64;94577.81;5042129;28;20241;-55
2022/07/13 12:24:45;;;;;;;0.40;0.40;;;;;;;33.20;19.83;94572.69;5047277;28;20213;-54
2022/07/13 12:27:31;;;;;;;0.30;0.30;;;;;;;33.59;18.81;94563.75;5042330;28;20340;-54
2022/07/13 12:30:15;;;;;;;0.50;0.32;;;;;;;33.65;19.20;94566.63;5050776;28;20205;-54
2022/07/13 12:33:00;;;;;;;0.40;0.30;;;;;;;33.51;19.71;94572.53;5049300;28;20201;-55
2022/07/13 12:35:45;;;;;;;0.30;0.30;;;;;;;33.60;18.46;94568.13;5050847;28;20581;-54
2022/07/13 12:38:29;;;;;;;0.75;0.20;;;;;;;33.46;19.18;94559.47;5042830;28;20260;-55
2022/07/13 12:41:26;;;;;;;1.27;0.40;;;;;;;33.72;17.48;94556.44;5045714;28;20210;-54
2022/07/13 12:44:10;;;;;;;0.35;0.30;;;;;;;33.79;18.52;94549.13;5045435;28;20209;-55
2022/07/13 12:46:55;;;;;;;0.40;0.40;;;;;;;33.92;20.24;94552.66;5050870;28;20217;-54
2022/07/13 12:49:43;;;;;;;0.20;0.20;;;;;;;34.13;17.99;94547.44;5047470;28;20208;-54
2022/07/13 12:52:27;;;;;;;0.20;0.20;;;;;;;34.42;18.92;94542.81;5044766;28;20267;-54
2022/07/13 12:55:11;;;;;;;0.30;0.30;;;;;;;34.50;17.54;94537.63;5043982;28;20255;-54
2022/07/13 12:57:55;;;;;;;3.40;0.47;;;;;;;35.16;17.26;94531.81;5050501;28;20200;-55
2022/07/13 13:00:39;;;;;;;0.75;0.43;;;;;;;34.56;18.08;94545.59;5045813;28;20226;-54
2022/07/13 13:03:23;;;;;;;0.40;0.38;;;;;;;34.50;18.00;94542.75;5045376;28;20755;-55
2022/07/13 13:06:07;;;;;;;0.45;0.20;;;;;;;34.55;18.15;94535.41;5050024;28;20202;-55
2022/07/13 13:09:04;;;;;;;1.75;0.30;;;;;;;34.52;14.80;94533.97;5049086;28;20694;-54
2022/07/13 13:11:49;;;;;;;2.05;0.30;;;;;;;34.49;14.53;94530.38;5046801;28;20240;-54
2022/07/13 13:14:33;;;;;;;0.30;0.30;;;;;;;34.73;15.06;94523.59;5035881;28;20590;-55
2022/07/13 13:17:17;;;;;;;0.30;0.30;;;;;;;34.79;15.37;94520.63;5049641;28;20438;-55
2022/07/13 13:20:01;;;;;;;0.75;0.50;;;;;;;35.24;15.33;94520.09;5050043;28;20213;-55
2022/07/13 13:22:45;;;;;;;0.50;0.30;;;;;;;35.04;18.93;94514.50;5052757;28;20201;-55
2022/07/13 13:25:28;;;;;;;0.95;0.30;;;;;;;34.78;19.12;94512.63;5052609;28;20253;-54
2022/07/13 13:28:12;;;;;;;0.55;0.40;;;;;;;34.73;19.45;94506.13;5054430;28;20244;-55
2022/07/13 13:30:56;;;;;;;0.30;0.30;;;;;;;34.37;18.84;94506.50;5048156;28;20228;-55
2022/07/13 13:33:40;;;;;;;0.52;0.50;;;;;;;33.80;17.82;94501.16;5052467;28;20682;-55
2022/07/13 13:36:25;;;;;;;0.40;0.40;;;;;;;33.18;19.70;94500.09;5049622;28;20197;-54
2022/07/13 13:39:09;;;;;;;0.32;0.32;;;;;;;32.52;18.54;94498.13;5049947;28;20702;-55
2022/07/13 13:41:53;;;;;;;2.20;0.40;;;;;;;32.73;18.94;94493.00;5052944;28;20274;-55
2022/07/13 13:44:37;;;;;;;1.73;0.35;;;;;;;32.19;20.62;94491.66;5041917;28;20674;-54
2022/07/13 13:47:21;;;;;;;0.95;0.40;;;;;;;32.53;19.09;94490.84;5053723;28;20760;-54
2022/07/13 13:50:05;;;;;;;0.40;0.40;;;;;;;32.88;20.27;94491.50;5055699;28;20212;-55
2022/07/13 13:52:50;;;;;;;0.68;0.47;;;;;;;32.96;20.71;94482.72;5044752;28;20226;-55
2022/07/13 13:55:34;;;;;;;0.40;0.40;;;;;;;32.81;19.69;94481.34;5049413;28;20716;-54
2022/07/13 13:58:18;;;;;;;0.52;0.40;;;;;;;32.63;20.49;94484.31;5053066;28;20216;-55
2022/07/13 14:01:02;;;;;;;0.85;0.43;;;;;;;32.86;21.25;94476.97;5049573;28;20197;-55
2022/07/13 14:03:47;;;;;;;2.08;0.28;;;;;;;32.93;20.36;94482.03;5053215;28;20218;-54
2022/07/13 14:06:31;;;;;;;1.55;0.40;;;;;;;33.16;21.23;94479.72;5046967;28;20717;-55
2022/07/13 14:09:15;;;;;;;0.40;0.40;;;;;;;32.88;20.39;94480.59;5052621;28;20308;-55
2022/07/13 14:12:00;;;;;;;0.30;0.30;;;;;;;32.24;20.71;94469.91;5051905;28;20376;-55
2022/07/13 14:14:44;;;;;;;0.63;0.30;;;;;;;31.35;19.71;94472.81;5045380;28;20897;-54
2022/07/13 14:17:28;;;;;;;0.40;0.38;;;;;;;31.48;21.28;94477.13;5047043;28;20205;-54
2022/07/13 14:20:12;;;;;;;0.40;0.40;;;;;;;31.69;18.99;94472.84;5049053;28;20261;-55
2022/07/13 14:22:57;;;;;;;1.30;0.55;;;;;;;32.07;19.28;94465.56;5047844;28;20232;-54
2022/07/13 14:25:41;;;;;;;2.05;0.40;;;;;;;31.87;21.79;94468.47;5051587;28;20198;-55
2022/07/13 14:28:25;;;;;;;0.38;0.32;;;;;;;32.32;20.89;94475.69;5053132;28;20200;-55
2022/07/13 14:31:09;;;;;;;0.30;0.30;;;;;;;32.31;20.14;94459.75;5051301;28;20363;-55